Time;durP1;ratioP1;P1;durP2;ratioP2;P2;SDS_P1;SDS_P2;PMS_P1;PMS_P2;Temp;Humidity;BMP_temperature;BMP_pressure;BME280_temperature;BME280_humidity;BME280_pressure;Samples;Min_cycle;Max_cycle;Signal;HPM_P1;HPM_P2
2023/11/10 00:00:09;;;;;;;;;2.25;2.25;;;;;-143.90;70.11;74911.72;4976634;28;102333;-74
2023/11/10 00:02:40;;;;;;;;;3.25;3.25;;;;;-143.90;70.68;74905.53;4982580;28;102259;-74
2023/11/10 00:05:08;;;;;;;;;8.00;5.25;;;;;-143.90;71.63;74901.41;4982576;28;104669;-73
2023/11/10 00:07:36;;;;;;;;;3.00;3.00;;;;;-143.90;70.63;74882.78;4979651;28;104177;-73
2023/11/10 00:10:04;;;;;;;;;4.75;4.75;;;;;-143.90;69.65;74878.66;4983520;28;102529;-74
2023/11/10 00:12:31;;;;;;;;;4.50;4.50;;;;;-143.90;70.47;74866.25;5000980;28;101870;-73
2023/11/10 00:14:58;;;;;;;;;9.75;7.50;;;;;-143.90;69.24;74858.00;4978587;28;102423;-73
2023/11/10 00:17:25;;;;;;;;;7.00;4.25;;;;;-143.90;69.81;74851.78;4979234;28;103656;-73
2023/11/10 00:19:52;;;;;;;;;8.00;7.00;;;;;-143.90;69.12;74839.38;4983033;28;102193;-73
2023/11/10 00:22:19;;;;;;;;;5.50;5.00;;;;;-143.90;69.60;74839.38;4980873;28;102184;-73
2023/11/10 00:24:46;;;;;;;;;7.00;6.50;;;;;-143.90;69.55;74833.19;4983665;28;103326;-73
2023/11/10 00:27:14;;;;;;;;;7.50;7.00;;;;;-143.90;69.33;74837.31;4994060;28;104241;-73
2023/11/10 00:29:41;;;;;;;;;7.25;6.00;;;;;-143.90;69.52;74824.91;4977094;28;101995;-74
2023/11/10 00:32:09;;;;;;;;;4.25;4.25;;;;;-143.90;68.50;74824.91;4976032;28;101892;-73
2023/11/10 00:34:36;;;;;;;;;5.75;3.00;;;;;-143.90;69.29;74820.78;4977727;28;102293;-73
2023/11/10 00:37:03;;;;;;;;;4.25;4.00;;;;;-143.90;69.24;74824.91;4976430;28;105761;-73
2023/11/10 00:39:30;;;;;;;;;7.75;4.00;;;;;-143.90;69.42;74829.03;4974070;28;102209;-73
2023/11/10 00:41:57;;;;;;;;;4.00;3.75;;;;;-143.90;69.19;74829.03;4976877;28;102078;-73
2023/11/10 00:44:24;;;;;;;;;5.00;4.25;;;;;-143.90;69.77;74833.19;4980604;28;102190;-73
2023/11/10 00:46:51;;;;;;;;;3.75;3.00;;;;;-143.90;70.10;74835.25;4975990;28;103663;-72
2023/11/10 00:49:18;;;;;;;;;4.00;3.50;;;;;-143.90;70.11;74824.91;4976125;28;102110;-73
2023/11/10 00:51:44;;;;;;;;;3.25;3.25;;;;;-143.90;70.32;74818.72;4980366;28;102344;-73
2023/11/10 00:54:12;;;;;;;;;4.75;4.00;;;;;-143.90;70.66;74818.72;4986273;28;102250;-75
2023/11/10 00:56:38;;;;;;;;;9.50;7.00;;;;;-143.90;69.77;74814.56;4981370;28;104103;-73
2023/11/10 00:59:05;;;;;;;;;8.75;6.50;;;;;-143.90;69.70;74808.38;4983729;28;102122;-74
2023/11/10 01:01:35;;;;;;;;;7.00;5.00;;;;;-143.90;69.62;74800.09;4979584;28;102154;-73
2023/11/10 01:04:02;;;;;;;;;3.75;3.75;;;;;-143.90;68.92;74791.84;4983037;28;102048;-74
2023/11/10 01:06:29;;;;;;;;;3.25;3.00;;;;;-143.90;69.07;74781.50;4982063;28;104016;-74
2023/11/10 01:08:59;;;;;;;;;1.00;1.00;;;;;-143.90;69.14;74783.56;4983395;28;102409;-73
2023/11/10 01:11:27;;;;;;;;;5.00;4.00;;;;;-143.90;69.43;74779.44;4978765;28;101912;-73
2023/11/10 01:13:54;;;;;;;;;3.50;3.00;;;;;-143.90;69.26;74775.31;4979092;28;102069;-73
2023/11/10 01:16:21;;;;;;;;;3.75;3.25;;;;;-143.90;69.99;74773.22;4975717;28;104240;-73
2023/11/10 01:18:48;;;;;;;;;8.50;8.50;;;;;-143.90;70.04;74785.63;4975398;28;101965;-75
2023/11/10 01:21:15;;;;;;;;;4.00;3.25;;;;;-143.90;69.72;74791.84;4982644;28;102356;-73
2023/11/10 01:23:42;;;;;;;;;2.00;2.00;;;;;-143.90;70.57;74798.03;4976432;28;102078;-75
2023/11/10 01:26:09;;;;;;;;;5.00;5.00;;;;;-143.90;69.85;74804.25;4972930;28;105633;-74
2023/11/10 01:28:37;;;;;;;;;8.50;8.00;;;;;-143.90;69.98;74835.25;4975244;28;102065;-74
2023/11/10 01:31:04;;;;;;;;;8.25;7.75;;;;;-143.90;71.01;74835.25;4979600;28;103099;-75
2023/11/10 01:33:31;;;;;;;;;2.75;2.00;;;;;-143.90;70.63;74837.31;4977282;28;102106;-75
2023/11/10 01:35:58;;;;;;;;;6.00;6.00;;;;;-143.90;71.88;74837.31;4981110;28;104089;-74
2023/11/10 01:38:24;;;;;;;;;6.00;4.00;;;;;-143.90;72.49;74839.38;4971407;28;102033;-74
2023/11/10 01:40:51;;;;;;;;;4.00;3.00;;;;;-143.90;72.14;74849.72;4983724;28;102979;-74
2023/11/10 01:43:18;;;;;;;;;4.50;3.00;;;;;-143.90;72.07;74853.84;4983431;28;101918;-74
2023/11/10 01:45:44;;;;;;;;;3.50;3.50;;;;;-143.90;72.14;74858.00;4983701;28;103254;-74
2023/11/10 01:48:13;;;;;;;;;4.00;3.00;;;;;-143.90;72.81;74862.13;4984615;28;102562;-75
2023/11/10 01:50:42;;;;;;;;;1.75;1.75;;;;;-143.90;73.69;74866.25;4985145;28;102358;-74
2023/11/10 01:53:09;;;;;;;;;2.50;2.50;;;;;-143.90;74.37;74870.38;4984777;28;105396;-74
2023/11/10 01:55:37;;;;;;;;;2.50;2.50;;;;;-143.90;74.30;74872.47;4981894;28;104113;-73
2023/11/10 01:58:05;;;;;;;;;3.00;3.00;;;;;-143.90;75.06;74880.72;4983183;28;101954;-72
2023/11/10 02:00:32;;;;;;;;;2.00;2.00;;;;;-143.90;75.34;74880.72;4978275;28;102986;-74
2023/11/10 02:03:06;;;;;;;;;4.00;3.00;;;;;-143.90;76.30;74886.94;4982050;28;102192;-73
2023/11/10 02:05:34;;;;;;;;;3.25;3.25;;;;;-143.90;76.75;74886.94;4979672;28;104268;-73
2023/11/10 02:08:06;;;;;;;;;4.00;3.00;;;;;-143.90;77.09;74891.06;4978827;28;102143;-73
2023/11/10 02:10:34;;;;;;;;;5.00;4.00;;;;;-143.90;76.94;74895.19;4976520;28;102007;-74
2023/11/10 02:13:01;;;;;;;;;2.50;2.50;;;;;-143.90;77.49;74901.41;4983890;28;102446;-73
2023/11/10 02:15:28;;;;;;;;;3.25;2.25;;;;;-143.90;77.64;74905.53;4976060;28;104343;-73
2023/11/10 02:17:55;;;;;;;;;3.25;3.00;;;;;-143.90;78.28;74901.41;4977307;28;102170;-74
2023/11/10 02:20:23;;;;;;;;;4.00;3.00;;;;;-143.90;78.51;74901.41;4985374;28;102170;-74
2023/11/10 02:22:50;;;;;;;;;3.50;3.50;;;;;-143.90;80.53;74911.72;4979726;28;101870;-73
2023/11/10 02:25:19;;;;;;;;;4.50;4.00;;;;;-143.90;79.51;74907.59;4974459;28;104242;-73
2023/11/10 02:27:47;;;;;;;;;4.50;2.00;;;;;-143.90;79.53;74911.72;4981760;28;102301;-73
2023/11/10 02:30:14;;;;;;;;;1.50;1.50;;;;;-143.90;80.20;74905.53;4986326;28;102013;-74
2023/11/10 02:32:42;;;;;;;;;3.75;3.75;;;;;-143.90;79.89;74901.41;4986511;28;102186;-74
2023/11/10 02:35:11;;;;;;;;;9.50;7.25;;;;;-143.90;80.65;74907.59;4980763;28;104014;-73
2023/11/10 02:37:37;;;;;;;;;18.75;14.25;;;;;-143.90;81.50;74926.22;4984517;28;102111;-73
2023/11/10 02:40:08;;;;;;;;;9.75;9.75;;;;;-143.90;81.01;74920.00;4987064;28;102217;-73
2023/11/10 02:42:35;;;;;;;;;7.75;7.75;;;;;-143.90;80.96;74909.66;4983428;28;102517;-73
2023/11/10 02:45:03;;;;;;;;;8.00;7.50;;;;;-143.90;80.79;74907.59;4983838;28;104291;-73
2023/11/10 02:47:31;;;;;;;;;6.75;6.75;;;;;-143.90;81.29;74913.81;4983722;28;102266;-72
2023/11/10 02:49:57;;;;;;;;;7.25;6.50;;;;;-143.90;81.76;74911.72;4977978;28;102039;-75
2023/11/10 02:52:25;;;;;;;;;6.75;4.00;;;;;-143.90;82.12;74920.00;4983224;28;102646;-73
2023/11/10 02:54:52;;;;;;;;;4.00;4.00;;;;;-143.90;82.14;74928.28;4977160;28;104028;-74
2023/11/10 02:57:20;;;;;;;;;6.00;3.50;;;;;-143.90;82.55;74936.53;4980196;28;102238;-74
2023/11/10 02:59:49;;;;;;;;;4.75;4.75;;;;;-143.90;82.54;74932.41;4979401;28;102348;-73
2023/11/10 03:02:16;;;;;;;;;3.00;3.00;;;;;-143.90;83.02;74940.69;4980710;28;102030;-73
2023/11/10 03:04:42;;;;;;;;;3.50;3.50;;;;;-143.90;83.99;74944.81;4975505;28;104209;-73
2023/11/10 03:07:10;;;;;;;;;4.25;4.00;;;;;-143.90;84.49;74946.88;4984119;28;101995;-73
2023/11/10 03:09:40;;;;;;;;;3.25;3.25;;;;;-143.90;85.60;74944.81;4977645;28;102321;-74
2023/11/10 03:12:08;;;;;;;;;6.00;5.50;;;;;-143.90;89.52;74959.28;4971837;28;102479;-73
2023/11/10 03:14:36;;;;;;;;;8.75;8.75;;;;;-143.90;93.69;74963.41;4974898;28;102870;-72
2023/11/10 03:17:04;;;;;;;;;8.00;7.00;;;;;-143.90;93.22;74967.56;4982548;28;101935;-74
2023/11/10 03:19:31;;;;;;;;;10.00;7.00;;;;;-143.90;97.42;74969.63;4981943;28;101950;-74
2023/11/10 03:21:58;;;;;;;;;8.75;7.00;;;;;-143.90;100.00;74973.75;4984705;28;102159;-74
2023/11/10 03:24:24;;;;;;;;;6.00;6.00;;;;;-143.90;99.70;74973.75;4981216;28;104216;-74
2023/11/10 03:26:51;;;;;;;;;9.75;8.25;;;;;-143.90;99.07;74982.03;4982606;28;102227;-74
2023/11/10 03:29:18;;;;;;;;;7.00;5.25;;;;;-143.90;98.79;74979.97;4982035;28;101959;-72
2023/11/10 03:31:44;;;;;;;;;7.00;7.00;;;;;-143.90;99.04;74979.97;4981124;28;101883;-73
2023/11/10 03:34:11;;;;;;;;;8.25;7.50;;;;;-143.90;100.00;74982.03;4978171;28;104061;-74
2023/11/10 03:36:38;;;;;;;;;9.75;9.00;;;;;-143.90;100.00;74990.28;4982325;28;102247;-74
2023/11/10 03:39:05;;;;;;;;;15.75;12.25;;;;;-143.90;100.00;75006.84;4983904;28;102371;-75
2023/11/10 03:41:32;;;;;;;;;10.25;9.25;;;;;-143.90;100.00;75008.91;4979934;28;102025;-73
2023/11/10 03:43:58;;;;;;;;;10.25;9.00;;;;;-143.90;100.00;75008.91;4977127;28;105344;-74
2023/11/10 03:46:25;;;;;;;;;10.75;10.75;;;;;-143.90;100.00;75010.97;4981979;28;102244;-74
2023/11/10 03:48:52;;;;;;;;;9.25;8.75;;;;;-143.90;100.00;75013.03;4977260;28;103419;-74
2023/11/10 03:51:19;;;;;;;;;7.00;7.00;;;;;-143.90;100.00;75006.84;4978802;28;101952;-74
2023/11/10 03:53:45;;;;;;;;;8.25;6.75;;;;;-143.90;100.00;75019.22;4973527;28;104378;-73
2023/11/10 03:56:12;;;;;;;;;6.00;4.00;;;;;-143.90;100.00;75006.84;4976735;28;102560;-73
2023/11/10 03:58:39;;;;;;;;;7.00;4.00;;;;;-143.90;100.00;75008.91;4976823;28;102131;-73
2023/11/10 04:01:10;;;;;;;;;3.25;1.75;;;;;-143.90;100.00;75023.38;4981487;28;102079;-73
2023/11/10 04:03:41;;;;;;;;;4.00;4.00;;;;;-143.90;100.00;75023.38;4981312;28;103532;-73
2023/11/10 04:06:08;;;;;;;;;5.00;5.00;;;;;-143.90;100.00;75023.38;4977845;28;102984;-73
2023/11/10 04:08:35;;;;;;;;;12.75;12.00;;;;;-143.90;100.00;75041.97;4984164;28;102355;-73
2023/11/10 04:11:02;;;;;;;;;12.00;12.00;;;;;-143.90;100.00;75046.09;4982265;28;102013;-73
2023/11/10 04:13:29;;;;;;;;;14.25;13.50;;;;;-143.90;100.00;75052.31;4982453;28;104336;-73
2023/11/10 04:15:56;;;;;;;;;23.00;20.75;;;;;-143.90;100.00;75060.59;4977608;28;102573;-73
2023/11/10 04:18:27;;;;;;;;;21.75;21.25;;;;;-143.90;100.00;75064.72;4979995;28;102030;-74
2023/11/10 04:20:55;;;;;;;;;19.25;15.00;;;;;-143.90;100.00;75066.78;4980602;28;102308;-73
2023/11/10 04:23:22;;;;;;;;;13.25;12.25;;;;;-143.90;100.00;75064.72;4976338;28;104002;-74
2023/11/10 04:25:49;;;;;;;;;17.50;15.00;;;;;-143.90;100.00;75058.50;4977343;28;102442;-73
2023/11/10 04:28:16;;;;;;;;;13.00;11.50;;;;;-143.90;100.00;75048.19;4977711;28;102069;-73
2023/11/10 04:30:44;;;;;;;;;12.50;8.50;;;;;-143.90;100.00;75044.03;4975286;28;102061;-73
2023/11/10 04:33:11;;;;;;;;;11.50;9.00;;;;;-143.90;100.00;75037.84;4977468;28;104113;-73
2023/11/10 04:35:38;;;;;;;;;7.25;6.75;;;;;-143.90;100.00;75044.03;4979669;28;102298;-73
2023/11/10 04:38:08;;;;;;;;;2.00;2.00;;;;;-143.90;100.00;75044.03;4973908;28;101971;-74
2023/11/10 04:40:36;;;;;;;;;6.25;5.50;;;;;-143.90;100.00;75054.38;4999763;28;102007;-73
2023/11/10 04:43:05;;;;;;;;;17.50;15.25;;;;;-143.90;100.00;75068.84;4973978;28;104366;-73
2023/11/10 04:45:32;;;;;;;;;13.50;12.00;;;;;-143.90;100.00;75072.97;4974164;28;102472;-73
2023/11/10 04:47:59;;;;;;;;;14.25;14.00;;;;;-143.90;100.00;75081.25;4973202;28;102427;-74
2023/11/10 04:50:26;;;;;;;;;25.50;22.25;;;;;-143.90;100.00;75097.78;4975389;28;103568;-74
2023/11/10 04:52:53;;;;;;;;;33.00;29.00;;;;;-143.90;100.00;75114.34;4985323;28;105385;-74
2023/11/10 04:55:20;;;;;;;;;24.00;20.25;;;;;-143.90;100.00;75106.06;4981979;28;102254;-73
2023/11/10 04:57:47;;;;;;;;;14.75;12.75;;;;;-143.90;100.00;75110.19;4985092;28;102230;-74
2023/11/10 05:00:14;;;;;;;;;28.00;23.00;;;;;-143.90;100.00;75118.47;4981976;28;102218;-73
2023/11/10 05:02:45;;;;;;;;;18.25;16.75;;;;;-143.90;100.00;75118.47;4981546;28;103955;-73
2023/11/10 05:05:13;;;;;;;;;31.50;23.00;;;;;-143.90;100.00;75126.75;4983314;28;102345;-73
2023/11/10 05:07:41;;;;;;;;;23.00;18.00;;;;;-143.90;100.00;75132.94;4980501;28;101917;-73
2023/11/10 05:10:09;;;;;;;;;31.50;26.75;;;;;-143.90;100.00;75143.28;4976344;28;102072;-74
2023/11/10 05:12:37;;;;;;;;;25.25;23.25;;;;;-143.90;100.00;75155.69;4979286;28;104895;-73
2023/11/10 05:15:05;;;;;;;;;29.00;24.75;;;;;-143.90;100.00;75155.69;4979186;28;102376;-73
2023/11/10 05:17:45;;;;;;;;;30.50;27.25;;;;;-143.90;100.00;75163.94;4974674;28;102184;-74
2023/11/10 05:20:13;;;;;;;;;38.00;32.25;;;;;-143.90;100.00;75176.34;4983512;28;102150;-74
2023/11/10 05:22:42;;;;;;;;;31.50;27.50;;;;;-143.90;100.00;75172.22;4980576;28;104979;-74
2023/11/10 05:25:12;;;;;;;;;22.50;20.75;;;;;-143.90;100.00;75166.03;4977271;28;103032;-74
2023/11/10 05:27:40;;;;;;;;;19.50;18.50;;;;;-143.90;100.00;75174.28;4978514;28;102700;-73
2023/11/10 05:30:09;;;;;;;;;17.75;17.75;;;;;-143.90;100.00;75182.56;4982000;28;102691;-72
2023/11/10 05:32:35;;;;;;;;;20.50;20.25;;;;;-143.90;100.00;75197.03;4978769;28;103180;-74
2023/11/10 05:35:04;;;;;;;;;27.50;23.75;;;;;-143.90;100.00;75211.50;4984363;28;102381;-73
2023/11/10 05:37:31;;;;;;;;;25.25;17.00;;;;;-143.90;100.00;75205.28;4979064;27;102456;-76
2023/11/10 05:39:59;;;;;;;;;30.00;25.00;;;;;-143.90;100.00;75190.81;4977153;28;102311;-76
2023/11/10 05:42:26;;;;;;;;;18.25;17.50;;;;;-143.90;100.00;75190.81;4983813;28;104040;-76
2023/11/10 05:44:53;;;;;;;;;18.50;18.50;;;;;-143.90;100.00;75184.63;4984057;28;102319;-73
2023/11/10 05:47:19;;;;;;;;;21.00;17.75;;;;;-143.90;100.00;75205.28;4981259;28;102128;-74
2023/11/10 05:49:46;;;;;;;;;21.75;19.75;;;;;-143.90;100.00;75201.16;4985669;28;102399;-74
2023/11/10 05:52:13;;;;;;;;;24.50;21.25;;;;;-143.90;100.00;75213.56;4977187;28;103758;-74
2023/11/10 05:54:40;;;;;;;;;33.00;30.50;;;;;-143.90;100.00;75209.44;4983141;28;101959;-74
2023/11/10 05:57:07;;;;;;;;;50.33;43.00;;;;;-143.90;100.00;75225.97;4980861;28;103026;-77
2023/11/10 05:59:34;;;;;;;;;44.33;38.33;;;;;-143.90;100.00;75225.97;4979933;28;102544;-73
2023/11/10 06:02:02;;;;;;;;;35.00;30.67;;;;;-143.90;100.00;75250.78;4983772;28;104429;-74
2023/11/10 06:04:30;;;;;;;;;31.50;30.25;;;;;-143.90;100.00;75259.06;4980848;28;102203;-73
2023/11/10 06:07:02;;;;;;;;;38.00;32.33;;;;;-143.90;100.00;75267.31;4982678;28;102375;-73
2023/11/10 06:09:31;;;;;;;;;38.00;34.50;;;;;-143.90;100.00;75269.38;4977824;28;102098;-73
2023/11/10 06:11:58;;;;;;;;;36.25;32.00;;;;;-143.90;100.00;75277.66;4964710;28;103872;-74
2023/11/10 06:14:24;;;;;;;;;40.67;33.67;;;;;-143.90;100.00;75279.72;4984673;28;102565;-74
2023/11/10 06:16:51;;;;;;;;;39.33;35.00;;;;;-143.90;100.00;75283.84;4980092;28;102412;-73
2023/11/10 06:19:18;;;;;;;;;41.33;38.00;;;;;-143.90;100.00;75283.84;4985246;28;102076;-74
2023/11/10 06:21:45;;;;;;;;;45.67;38.00;;;;;-143.90;100.00;75277.66;4983359;28;104182;-74
2023/11/10 06:24:12;;;;;;;;;58.33;44.67;;;;;-143.90;100.00;75290.06;4982708;28;102321;-74
2023/11/10 06:26:39;;;;;;;;;54.00;43.67;;;;;-143.90;100.00;75292.13;4978506;28;102396;-73
2023/11/10 06:29:06;;;;;;;;;53.00;40.67;;;;;-143.90;100.00;75277.66;4983375;28;102039;-74
2023/11/10 06:31:33;;;;;;;;;45.33;40.00;;;;;-143.90;100.00;75281.78;4984074;28;104017;-73
2023/11/10 06:34:00;;;;;;;;;36.00;32.50;;;;;-143.90;100.00;75267.31;4985041;28;102139;-75
2023/11/10 06:36:27;;;;;;;;;37.00;35.00;;;;;-143.90;100.00;75263.19;4982431;28;103108;-74
2023/11/10 06:38:54;;;;;;;;;25.50;24.75;;;;;-143.90;100.00;75259.06;4986092;28;102166;-73
2023/11/10 06:41:20;;;;;;;;;22.75;20.25;;;;;-143.90;100.00;75254.91;4979615;27;104150;-73
2023/11/10 06:43:47;;;;;;;;;42.33;36.33;;;;;-143.90;100.00;75259.06;4981830;28;102107;-73
2023/11/10 06:46:26;;;;;;;;;28.50;23.00;;;;;-143.90;100.00;75250.78;4984545;28;102231;-73
2023/11/10 06:48:55;;;;;;;;;26.50;21.25;;;;;-143.90;100.00;75248.72;4981565;28;102028;-73
2023/11/10 06:51:22;;;;;;;;;44.33;37.67;;;;;-143.90;100.00;75252.84;4979595;28;104040;-79
2023/11/10 06:53:49;;;;;;;;;36.75;27.00;;;;;-143.90;100.00;75238.38;4978717;28;103465;-74
2023/11/10 06:56:17;;;;;;;;;24.00;20.00;;;;;-143.90;100.00;75223.91;4984231;28;102293;-73
2023/11/10 06:58:45;;;;;;;;;49.00;41.00;;;;;-143.90;100.00;75232.19;4981566;28;103528;-74
2023/11/10 07:01:12;;;;;;;;;34.00;27.25;;;;;-143.90;100.00;75225.97;4984782;28;103190;-73
2023/11/10 07:03:40;;;;;;;;;28.25;24.25;;;;;-143.90;100.00;75201.16;4981935;28;102068;-75
2023/11/10 07:06:08;;;;;;;;;30.00;25.75;;;;;-143.90;100.00;75192.91;4978854;28;101921;-74
2023/11/10 07:08:36;;;;;;;;;76.00;54.33;;;;;-143.90;100.00;75190.81;4977920;28;102284;-74
2023/11/10 07:11:02;;;;;;;;;210.75;150.00;;;;;-143.90;100.00;75188.75;4979183;28;104175;-73
2023/11/10 07:13:30;;;;;;;;;161.75;108.50;;;;;-143.90;100.00;75180.50;4978472;28;102631;-74
2023/11/10 07:15:57;;;;;;;;;122.00;101.00;;;;;-143.90;100.00;75184.63;4977824;28;102217;-74
2023/11/10 07:18:28;;;;;;;;;91.00;66.00;;;;;-143.90;100.00;75170.16;4985358;28;102021;-73
2023/11/10 07:20:55;;;;;;;;;79.00;59.67;;;;;-143.90;100.00;75166.03;4983333;28;104118;-81
2023/11/10 07:23:24;;;;;;;;;63.00;50.67;;;;;-143.90;100.00;75159.81;4983959;28;102037;-72
2023/11/10 07:25:52;;;;;;;;;57.67;44.00;;;;;-143.90;100.00;75147.41;4981409;28;102011;-74
2023/11/10 07:28:19;;;;;;;;;48.25;35.00;;;;;-143.90;100.00;75143.28;4986118;28;102134;-72
2023/11/10 07:30:46;;;;;;;;;34.00;30.75;;;;;-143.90;100.00;75128.81;4986934;28;103763;-74
2023/11/10 07:33:12;;;;;;;;;36.50;31.50;;;;;-143.90;100.00;75120.53;4981401;28;102124;-74
2023/11/10 07:35:39;;;;;;;;;33.00;30.25;;;;;-143.90;100.00;75104.00;4984146;28;101862;-72
2023/11/10 07:38:06;;;;;;;;;31.75;25.75;;;;;-143.90;100.00;75095.72;4983070;28;102937;-73
2023/11/10 07:40:33;;;;;;;;;33.50;29.25;;;;;-143.90;100.00;75085.38;4976435;28;104082;-75
2023/11/10 07:43:00;;;;;;;;;21.75;19.50;;;;;-143.90;100.00;75064.72;4981496;28;103130;-73
2023/11/10 07:45:28;;;;;;;;;21.75;19.00;;;;;-143.90;100.00;75054.38;4978070;28;101838;-74
2023/11/10 07:47:56;;;;;;;;;27.75;23.00;;;;;-143.90;100.00;75044.03;4985210;28;102200;-73
2023/11/10 07:50:24;;;;;;;;;24.00;20.00;;;;;-143.90;100.00;75037.84;4978165;28;103210;-73
2023/11/10 07:52:51;;;;;;;;;23.25;17.25;;;;;-143.90;100.00;75010.97;4979579;28;102473;-74
2023/11/10 07:55:18;;;;;;;;;16.50;16.25;;;;;-143.90;100.00;74998.56;4978979;28;102137;-72
2023/11/10 07:57:48;;;;;;;;;18.00;15.25;;;;;-143.90;100.00;74979.97;4980791;28;102789;-74
2023/11/10 08:00:18;;;;;;;;;16.75;15.50;;;;;-143.90;100.00;74957.22;4978595;28;103994;-74
2023/11/10 08:02:49;;;;;;;;;14.00;13.50;;;;;-143.90;100.00;74928.28;4980737;28;102937;-71
2023/11/10 08:05:16;;;;;;;;;15.25;15.25;;;;;-143.90;100.00;74901.41;4982656;28;102432;-72
2023/11/10 08:07:43;;;;;;;;;14.00;12.25;;;;;-143.90;100.00;74886.94;5005360;28;102134;-73
2023/11/10 08:10:10;;;;;;;;;13.75;13.00;;;;;-143.90;100.00;74853.84;4978844;28;104114;-72
2023/11/10 08:12:39;;;;;;;;;19.25;16.00;;;;;-143.90;100.00;74829.03;4985323;28;102035;-73
2023/11/10 08:15:06;;;;;;;;;11.00;8.75;;;;;-143.90;100.00;74795.97;4977714;28;101964;-74
2023/11/10 08:17:32;;;;;;;;;11.75;10.00;;;;;-143.90;100.00;74767.03;4985198;28;103076;-74
2023/11/10 08:19:59;;;;;;;;;9.00;8.25;;;;;-143.90;100.00;74748.44;5000502;28;104186;-74
2023/11/10 08:22:26;;;;;;;;;15.00;10.00;;;;;-143.90;99.29;74729.81;4979613;28;102004;-74
2023/11/10 08:24:54;;;;;;;;;13.75;13.00;;;;;-143.90;99.79;74696.75;4980084;28;103200;-74
2023/11/10 08:27:22;;;;;;;;;11.75;11.00;;;;;-143.90;98.78;74667.81;4978531;28;102260;-74
2023/11/10 08:29:49;;;;;;;;;13.25;12.00;;;;;-143.90;92.90;74643.00;4977296;28;104218;-74
2023/11/10 08:32:16;;;;;;;;;14.75;13.25;;;;;-143.90;92.22;74616.13;4977201;28;102566;-74
2023/11/10 08:34:42;;;;;;;;;10.75;10.00;;;;;-143.90;91.11;74587.19;4977368;28;102097;-74
2023/11/10 08:37:09;;;;;;;;;10.50;9.00;;;;;-143.90;88.11;74560.31;4978511;28;102348;-73
2023/11/10 08:39:36;;;;;;;;;8.50;8.50;;;;;-143.90;87.63;74541.72;4975637;28;104088;-73
2023/11/10 08:42:04;;;;;;;;;8.75;8.25;;;;;-143.90;87.14;74531.38;4980744;28;102459;-73
2023/11/10 08:44:31;;;;;;;;;10.75;10.50;;;;;-143.90;87.28;74523.09;4978322;28;102473;-74
2023/11/10 08:46:57;;;;;;;;;9.00;7.75;;;;;-143.90;86.14;74510.72;4979635;28;102003;-73
2023/11/10 08:49:24;;;;;;;;;10.00;8.00;;;;;-143.90;86.47;74502.44;4975541;28;104200;-74
2023/11/10 08:51:51;;;;;;;;;9.00;7.00;;;;;-143.90;85.70;74490.03;4958133;28;102638;-74
2023/11/10 08:54:18;;;;;;;;;5.00;5.00;;;;;-143.90;84.75;74483.84;4973114;28;102563;-74
2023/11/10 08:56:45;;;;;;;;;6.25;5.50;;;;;-143.90;85.02;74473.50;4982956;28;102246;-74
2023/11/10 08:59:12;;;;;;;;;5.50;5.00;;;;;-143.90;85.60;74456.97;4985616;28;104231;-74
2023/11/10 09:01:39;;;;;;;;;7.75;4.00;;;;;-143.90;82.72;74456.97;4981754;28;101976;-74
2023/11/10 09:04:06;;;;;;;;;4.50;4.00;;;;;-143.90;84.21;74448.69;4983509;28;102078;-74
2023/11/10 09:06:36;;;;;;;;;7.25;5.50;;;;;-143.90;85.47;74448.69;4986140;28;102183;-74
2023/11/10 09:09:03;;;;;;;;;8.00;6.50;;;;;-143.90;82.89;74448.69;4976718;28;104197;-74
2023/11/10 09:11:31;;;;;;;;;6.00;5.00;;;;;-143.90;81.06;74428.03;4980151;28;101928;-74
2023/11/10 09:13:58;;;;;;;;;7.00;7.00;;;;;-143.90;84.08;74417.69;4978697;28;102086;-74
2023/11/10 09:16:25;;;;;;;;;4.00;3.75;;;;;-143.90;83.85;74409.41;4982571;28;102118;-74
2023/11/10 09:18:53;;;;;;;;;9.00;8.00;;;;;-143.90;80.93;74409.41;4977314;28;104284;-75
2023/11/10 09:21:20;;;;;;;;;6.00;5.50;;;;;-143.90;83.73;74390.81;4978036;28;102359;-73
2023/11/10 09:23:46;;;;;;;;;9.00;4.00;;;;;-143.90;80.76;74386.69;4976229;28;102081;-73
2023/11/10 09:26:14;;;;;;;;;3.50;3.00;;;;;-143.90;81.43;74372.22;4978325;28;103081;-73
2023/11/10 09:28:42;;;;;;;;;4.50;4.50;;;;;-143.90;80.36;74359.81;4976745;28;105216;-74
2023/11/10 09:31:09;;;;;;;;;7.00;5.75;;;;;-143.90;79.50;74357.75;4974753;28;103036;-73
2023/11/10 09:33:37;;;;;;;;;9.25;7.50;;;;;-143.90;79.10;74361.88;4976552;28;102300;-74
2023/11/10 09:36:04;;;;;;;;;6.25;6.00;;;;;-143.90;81.70;74341.22;4975987;28;102054;-74
2023/11/10 09:38:31;;;;;;;;;8.25;6.00;;;;;-143.90;79.05;74328.81;4974680;28;103507;-74
2023/11/10 09:40:57;;;;;;;;;8.75;8.00;;;;;-143.90;78.58;74316.41;4975833;28;102190;-75
2023/11/10 09:43:24;;;;;;;;;9.50;8.50;;;;;-143.90;75.70;74301.94;4978196;28;102082;-73
2023/11/10 09:45:51;;;;;;;;;5.50;5.50;;;;;-143.90;75.82;74289.53;4987227;28;101912;-74
2023/11/10 09:48:19;;;;;;;;;10.00;8.00;;;;;-143.90;76.89;74287.47;4984992;28;104203;-75
2023/11/10 09:50:49;;;;;;;;;11.75;10.25;;;;;-143.90;77.21;74297.81;4976124;28;103163;-75
2023/11/10 09:53:17;;;;;;;;;8.25;8.25;;;;;-143.90;78.04;74289.53;4978688;28;102165;-74
2023/11/10 09:55:45;;;;;;;;;5.25;5.25;;;;;-143.90;77.73;74281.28;4983422;28;102220;-74
2023/11/10 09:58:14;;;;;;;;;21.25;18.00;;;;;-143.90;76.03;74301.94;4978103;28;104078;-73
2023/11/10 10:00:43;;;;;;;;;15.00;13.50;;;;;-143.90;78.48;74304.00;4980646;28;102832;-73
2023/11/10 10:03:12;;;;;;;;;11.00;10.25;;;;;-143.90;79.83;74299.88;4982942;28;102029;-74
2023/11/10 10:05:39;;;;;;;;;9.00;7.50;;;;;-143.90;77.73;74304.00;4983058;28;102282;-74
2023/11/10 10:08:07;;;;;;;;;10.75;10.25;;;;;-143.90;78.68;74304.00;4981332;28;103327;-73
2023/11/10 10:10:39;;;;;;;;;9.00;7.00;;;;;-143.90;77.23;74308.13;4982253;28;102329;-75
2023/11/10 10:13:07;;;;;;;;;8.75;7.00;;;;;-143.90;76.66;74306.06;4980227;28;102475;-75
2023/11/10 10:15:35;;;;;;;;;6.00;5.25;;;;;-143.90;76.69;74299.88;4983099;28;102229;-73
2023/11/10 10:18:08;;;;;;;;;5.75;4.75;;;;;-143.90;76.92;74293.66;4993437;28;104340;-74
2023/11/10 10:20:39;;;;;;;;;5.75;4.75;;;;;-143.90;76.53;74285.41;4982568;28;101858;-74
2023/11/10 10:23:09;;;;;;;;;5.50;4.00;;;;;-143.90;76.16;74281.28;4976945;28;102083;-73
2023/11/10 10:25:38;;;;;;;;;30.75;26.00;;;;;-143.90;75.68;74308.13;4984843;28;103051;-73
2023/11/10 10:28:07;;;;;;;;;19.00;18.75;;;;;-143.90;77.00;74295.75;4985034;28;104456;-73
2023/11/10 10:30:36;;;;;;;;;18.00;16.00;;;;;-143.90;77.04;74283.34;4982205;28;101895;-74
2023/11/10 10:33:05;;;;;;;;;11.00;11.00;;;;;-143.90;76.05;74260.59;4985220;28;103262;-74
2023/11/10 10:35:32;;;;;;;;;11.75;10.75;;;;;-143.90;75.26;74256.47;4987931;28;102245;-73
2023/11/10 10:38:04;;;;;;;;;10.25;9.75;;;;;-143.90;75.20;74233.72;4983543;28;104136;-73
2023/11/10 10:40:35;;;;;;;;;11.50;11.25;;;;;-143.90;75.95;74256.47;4984259;28;102129;-73
2023/11/10 10:43:03;;;;;;;;;11.50;10.25;;;;;-143.90;74.46;74237.88;4981328;28;102103;-74
2023/11/10 10:45:33;;;;;;;;;7.00;6.00;;;;;-143.90;74.83;74217.19;4985946;28;102040;-74
2023/11/10 10:48:03;;;;;;;;;8.25;8.00;;;;;-143.90;73.65;74204.78;4974940;28;105450;-74
2023/11/10 10:50:33;;;;;;;;;9.00;7.25;;;;;-143.90;72.87;74196.53;4984751;28;101897;-73
2023/11/10 10:53:05;;;;;;;;;8.25;8.25;;;;;-143.90;70.77;74180.00;4982107;28;103207;-73
2023/11/10 10:55:34;;;;;;;;;7.00;5.00;;;;;-143.90;71.45;74177.94;5006652;28;102993;-73
2023/11/10 10:58:01;;;;;;;;;5.75;5.25;;;;;-143.90;69.00;74163.47;4978676;28;104765;-76
2023/11/10 11:00:30;;;;;;;;;9.50;6.50;;;;;-143.90;68.88;74159.31;4981535;28;102150;-73